Redwood Estates, California
Current Conditions -  °F | °C
As of 11:53 AM on Friday 28 Nov 2014 (Local Time) from KSJC Reporting Station
Haze Haze  
Wind Chill: 56°   Ceiling: Unl
Heat Index: 56°   Visibility: 3mi
Dew Point: 44°   Wind: 3mph
Humidity: 64%   Direction: 230°SW
Pressure: 29.99"   Gusts: NA
Location:  37.16°N, 121.99°W
Report Text: KSJC 281953Z 23003KT 3SM HZ FEW080 SCT130 13/07 A2999 RMK AO2 SLP155 T01330067
Loading
Personal Weather Stations






























Interactive Weather Map New forecast layout! Learn more

10-Day Weather Forecast

Advertisements
Track Severe Weather on mobile